Time;durP1;ratioP1;P1;durP2;ratioP2;P2;SDS_P1;SDS_P2;PMS_P1;PMS_P2;Temp;Humidity;BMP_temperature;BMP_pressure;BME280_temperature;BME280_humidity;BME280_pressure;Samples;Min_cycle;Max_cycle;Signal;HPM_P1;HPM_P2
2023/06/05 00:00:15;;;;;;;14.90;11.48;;;;;;;;;;9509339;30;20060;-66
2023/06/05 00:05:09;;;;;;;11.95;10.20;;;;;;;;;;9507810;30;20095;-66
2023/06/05 00:10:04;;;;;;;11.65;10.45;;;;;;;;;;9500783;30;20091;-66
2023/06/05 00:14:58;;;;;;;15.60;10.95;;;;;;;;;;9500258;30;20052;-65
2023/06/05 00:19:51;;;;;;;14.70;9.77;;;;;;;;;;9499127;30;20068;-66
2023/06/05 00:24:45;;;;;;;14.43;9.88;;;;;;;;;;9500261;30;20432;-66
2023/06/05 00:29:39;;;;;;;17.10;11.48;;;;;;;;;;9498921;30;20056;-66
2023/06/05 00:34:32;;;;;;;19.30;10.07;;;;;;;;;;9501390;30;20067;-66
2023/06/05 00:39:27;;;;;;;15.40;10.32;;;;;;;;;;9510088;30;20053;-66
2023/06/05 00:44:20;;;;;;;10.35;9.32;;;;;;;;;;9486302;30;20055;-66
2023/06/05 00:49:16;;;;;;;12.20;9.35;;;;;;;;;;9487025;30;20517;-65
2023/06/05 00:54:10;;;;;;;12.40;9.30;;;;;;;;;;9496457;30;20052;-65
2023/06/05 00:59:04;;;;;;;9.55;8.55;;;;;;;;;;9495321;30;20129;-66
2023/06/05 01:03:59;;;;;;;13.48;9.05;;;;;;;;;;9515958;30;20461;-66
2023/06/05 01:08:53;;;;;;;11.32;9.40;;;;;;;;;;9490933;30;20056;-66
2023/06/05 01:14:02;;;;;;;11.02;9.02;;;;;;;;;;9500536;30;20083;-67
2023/06/05 01:19:01;;;;;;;9.38;8.48;;;;;;;;;;9504337;30;20087;-66
2023/06/05 01:24:01;;;;;;;13.02;9.30;;;;;;;;;;9503853;30;20525;-65
2023/06/05 01:28:55;;;;;;;9.75;8.75;;;;;;;;;;9504890;30;20064;-66
2023/06/05 01:34:02;;;;;;;12.27;9.35;;;;;;;;;;9499294;29;20075;-66
2023/06/05 01:38:57;;;;;;;10.18;9.18;;;;;;;;;;9479086;30;20517;-65
2023/06/05 01:43:51;;;;;;;17.90;8.45;;;;;;;;;;9486609;30;20418;-66
2023/06/05 01:48:45;;;;;;;12.68;9.73;;;;;;;;;;9492116;30;20060;-66
2023/06/05 01:53:38;;;;;;;10.40;9.40;;;;;;;;;;9510190;30;20049;-66
2023/06/05 01:58:32;;;;;;;12.65;9.60;;;;;;;;;;9496735;30;20535;-66
2023/06/05 02:03:25;;;;;;;13.45;10.10;;;;;;;;;;9508733;30;20056;-66
2023/06/05 02:08:22;;;;;;;11.43;9.82;;;;;;;;;;9505567;30;20052;-66
2023/06/05 02:13:16;;;;;;;13.70;10.77;;;;;;;;;;9482580;30;20522;-66
2023/06/05 02:18:09;;;;;;;14.23;9.90;;;;;;;;;;9483226;30;20135;-66
2023/06/05 02:23:04;;;;;;;12.73;10.65;;;;;;;;;;9515558;30;20067;-66
2023/06/05 02:27:58;;;;;;;13.07;10.52;;;;;;;;;;9503387;30;20056;-66
2023/06/05 02:33:00;;;;;;;13.13;10.70;;;;;;;;;;9511921;30;20056;-66
2023/06/05 02:38:09;;;;;;;10.65;9.55;;;;;;;;;;9500809;30;20056;-66
2023/06/05 02:43:05;;;;;;;12.13;10.75;;;;;;;;;;9498571;30;20151;-66
2023/06/05 02:47:58;;;;;;;11.32;9.20;;;;;;;;;;9493532;30;20082;-66
2023/06/05 02:52:52;;;;;;;17.80;11.55;;;;;;;;;;9491382;30;20406;-66
2023/06/05 02:57:52;;;;;;;15.55;13.15;;;;;;;;;;9482045;30;20061;-65
2023/06/05 03:02:55;;;;;;;13.55;12.15;;;;;;;;;;9484205;30;20052;-65
2023/06/05 03:07:54;;;;;;;18.45;13.70;;;;;;;;;;9484459;30;20587;-66
2023/06/05 03:12:49;;;;;;;13.73;11.98;;;;;;;;;;9500634;30;20056;-65
2023/06/05 03:17:44;;;;;;;14.77;12.70;;;;;;;;;;9480304;30;20144;-65
2023/06/05 03:22:39;;;;;;;15.30;11.90;;;;;;;;;;9487698;30;20053;-65
2023/06/05 03:27:35;;;;;;;14.13;11.32;;;;;;;;;;9521825;30;20056;-66
2023/06/05 03:32:28;;;;;;;14.48;12.48;;;;;;;;;;9503758;30;20524;-66
2023/06/05 03:37:23;;;;;;;15.75;13.20;;;;;;;;;;9490149;30;20057;-64
2023/06/05 03:42:16;;;;;;;17.27;13.43;;;;;;;;;;9506335;30;20063;-66
2023/06/05 03:47:09;;;;;;;17.88;14.40;;;;;;;;;;9519613;30;20390;-66
2023/06/05 03:52:07;;;;;;;15.98;14.27;;;;;;;;;;9507519;30;20139;-66
2023/06/05 03:57:02;;;;;;;18.30;13.40;;;;;;;;;;9512719;30;20067;-66
2023/06/05 04:01:57;;;;;;;16.45;13.90;;;;;;;;;;9508217;30;20052;-66
2023/06/05 04:06:53;;;;;;;18.15;15.85;;;;;;;;;;9504962;30;20052;-66
2023/06/05 04:11:50;;;;;;;16.73;13.80;;;;;;;;;;9503173;30;20645;-66
2023/06/05 04:16:43;;;;;;;16.98;15.13;;;;;;;;;;9489668;30;20313;-65
2023/06/05 04:21:42;;;;;;;21.75;15.63;;;;;;;;;;9498670;30;20143;-66
2023/06/05 04:26:37;;;;;;;17.25;15.45;;;;;;;;;;9506020;30;20163;-65
2023/06/05 04:31:30;;;;;;;16.48;14.75;;;;;;;;;;9507908;30;20512;-66
2023/06/05 04:36:24;;;;;;;19.42;15.45;;;;;;;;;;9491342;30;20056;-66
2023/06/05 04:41:17;;;;;;;14.98;12.95;;;;;;;;;;9474618;30;20517;-66
2023/06/05 04:46:10;;;;;;;14.27;11.90;;;;;;;;;;9495000;30;20056;-66
2023/06/05 04:51:03;;;;;;;15.55;13.88;;;;;;;;;;9477361;30;20064;-66
2023/06/05 04:55:59;;;;;;;14.35;12.90;;;;;;;;;;9510522;30;20099;-66
2023/06/05 05:00:56;;;;;;;17.43;14.53;;;;;;;;;;9509975;30;20055;-67
2023/06/05 05:05:49;;;;;;;17.23;13.43;;;;;;;;;;9486806;30;20079;-66
2023/06/05 05:10:43;;;;;;;18.83;13.80;;;;;;;;;;9506753;30;20510;-66
2023/06/05 05:15:36;;;;;;;15.05;13.52;;;;;;;;;;9495314;30;20102;-66
2023/06/05 05:20:32;;;;;;;14.68;12.95;;;;;;;;;;9486388;30;20083;-66
2023/06/05 05:25:25;;;;;;;17.45;13.57;;;;;;;;;;9501380;30;20056;-66
2023/06/05 05:30:18;;;;;;;19.33;13.75;;;;;;;;;;9515885;30;20457;-66
2023/06/05 05:35:12;;;;;;;14.40;12.90;;;;;;;;;;9496647;30;20064;-66
2023/06/05 05:40:06;;;;;;;15.80;13.02;;;;;;;;;;9485566;30;20547;-66
2023/06/05 05:45:00;;;;;;;21.50;14.55;;;;;;;;;;9493776;30;20055;-66
2023/06/05 05:49:54;;;;;;;18.27;14.38;;;;;;;;;;9495315;30;20083;-66
2023/06/05 05:54:47;;;;;;;16.80;14.75;;;;;;;;;;9479223;30;20106;-66
2023/06/05 05:59:44;;;;;;;20.27;15.43;;;;;;;;;;9489031;30;20068;-67
2023/06/05 06:04:38;;;;;;;16.35;14.15;;;;;;;;;;9494017;30;20494;-66
2023/06/05 06:09:33;;;;;;;14.35;12.32;;;;;;;;;;9481385;30;20331;-65
2023/06/05 06:14:25;;;;;;;13.23;11.85;;;;;;;;;;9481621;30;20102;-66
2023/06/05 06:19:23;;;;;;;17.45;13.07;;;;;;;;;;9492393;30;20076;-64
2023/06/05 06:24:16;;;;;;;15.13;13.20;;;;;;;;;;9490604;30;20056;-66
2023/06/05 06:29:09;;;;;;;17.60;13.95;;;;;;;;;;9493543;30;20668;-66
2023/06/05 06:34:03;;;;;;;16.02;14.25;;;;;;;;;;9489901;30;20065;-66
2023/06/05 06:38:57;;;;;;;19.88;16.52;;;;;;;;;;9486118;30;20078;-66
2023/06/05 06:43:52;;;;;;;18.85;14.77;;;;;;;;;;9491517;30;20073;-66
2023/06/05 06:48:48;;;;;;;24.55;16.77;;;;;;;;;;9493946;30;20425;-71
2023/06/05 06:53:41;;;;;;;19.95;15.43;;;;;;;;;;9495334;30;20402;-67
2023/06/05 06:58:35;;;;;;;22.60;15.85;;;;;;;;;;9500354;30;20056;-67
2023/06/05 07:03:28;;;;;;;17.17;13.13;;;;;;;;;;9502163;30;20049;-67
2023/06/05 07:08:22;;;;;;;11.73;9.77;;;;;;;;;;9489403;30;20099;-68
2023/06/05 07:13:15;;;;;;;16.42;11.73;;;;;;;;;;9490131;30;20068;-67
2023/06/05 07:18:10;;;;;;;16.20;13.43;;;;;;;;;;9490858;30;20062;-67
2023/06/05 07:23:03;;;;;;;14.80;12.43;;;;;;;;;;9498475;30;20068;-67
2023/06/05 07:27:59;;;;;;;13.80;10.90;;;;;;;;;;9483481;30;20056;-67
2023/06/05 07:32:52;;;;;;;12.48;10.15;;;;;;;;;;9502085;30;20072;-67
2023/06/05 07:37:45;;;;;;;11.90;9.68;;;;;;;;;;9490155;30;20068;-67
2023/06/05 07:42:40;;;;;;;11.13;9.77;;;;;;;;;;9488904;30;20055;-67
2023/06/05 07:47:34;;;;;;;13.00;10.98;;;;;;;;;;9491365;30;20075;-68
2023/06/05 07:52:27;;;;;;;10.75;9.65;;;;;;;;;;9490666;30;20052;-67
2023/06/05 07:57:23;;;;;;;11.80;9.60;;;;;;;;;;9485500;30;20088;-68
2023/06/05 08:02:18;;;;;;;11.80;9.40;;;;;;;;;;9498085;30;20055;-67
2023/06/05 08:07:11;;;;;;;9.35;7.68;;;;;;;;;;9498158;30;20071;-67
2023/06/05 08:12:05;;;;;;;13.05;8.60;;;;;;;;;;9498481;30;20418;-64
2023/06/05 08:16:59;;;;;;;8.70;7.90;;;;;;;;;;9479904;30;20079;-63
2023/06/05 08:21:56;;;;;;;9.48;8.48;;;;;;;;;;9505923;30;20059;-64
2023/06/05 08:26:49;;;;;;;13.63;10.55;;;;;;;;;;9496892;30;20516;-64
2023/06/05 08:31:44;;;;;;;13.75;12.30;;;;;;;;;;9507617;30;20139;-64
2023/06/05 08:36:38;;;;;;;13.18;11.90;;;;;;;;;;9506685;30;20505;-64
2023/06/05 08:41:33;;;;;;;14.25;11.88;;;;;;;;;;9499684;30;20064;-68
2023/06/05 08:46:30;;;;;;;11.38;10.25;;;;;;;;;;9507847;30;20068;-67
2023/06/05 08:51:24;;;;;;;12.97;10.97;;;;;;;;;;9502306;30;20060;-67
2023/06/05 08:56:17;;;;;;;13.98;12.13;;;;;;;;;;9503725;30;20060;-67
2023/06/05 09:01:10;;;;;;;11.98;10.45;;;;;;;;;;9505712;30;20087;-67
2023/06/05 09:06:04;;;;;;;15.27;10.52;;;;;;;;;;9504832;30;20488;-67
2023/06/05 09:11:27;;;;;;;14.32;11.00;;;;;;;;;;9511323;30;20068;-65
2023/06/05 09:16:43;;;;;;;11.20;10.10;;;;;;;;;;9488459;30;20084;-66
2023/06/05 09:21:37;;;;;;;9.20;8.32;;;;;;;;;;9502532;30;20094;-66
2023/06/05 09:26:58;;;;;;;8.10;7.38;;;;;;;;;;9497932;30;20409;-66
2023/06/05 09:31:53;;;;;;;7.95;7.20;;;;;;;;;;9498699;30;20056;-66
2023/06/05 09:36:46;;;;;;;10.30;9.30;;;;;;;;;;9503460;29;20517;-66
2023/06/05 09:41:44;;;;;;;12.15;10.95;;;;;;;;;;9507499;29;20106;-67
2023/06/05 09:47:07;;;;;;;11.23;8.63;;;;;;;;;;9495657;30;20052;-75
2023/06/05 09:52:02;;;;;;;11.45;10.25;;;;;;;;;;9503087;29;20855;-67
2023/06/05 09:57:02;;;;;;;15.80;13.40;;;;;;;;;;9504082;30;20060;-72
2023/06/05 10:01:56;;;;;;;8.80;7.93;;;;;;;;;;9505608;30;20144;-70
2023/06/05 10:06:51;;;;;;;7.55;6.85;;;;;;;;;;9506498;30;20056;-65
2023/06/05 10:11:49;;;;;;;7.00;6.07;;;;;;;;;;9506988;30;20548;-66
2023/06/05 10:16:43;;;;;;;8.43;6.80;;;;;;;;;;9498125;30;20059;-69
2023/06/05 10:21:37;;;;;;;8.23;6.72;;;;;;;;;;9499002;30;20060;-67
2023/06/05 10:26:48;;;;;;;8.05;6.72;;;;;;;;;;9499423;30;20438;-67
2023/06/05 10:31:52;;;;;;;8.82;7.30;;;;;;;;;;9496915;30;20060;-68
2023/06/05 10:37:32;;;;;;;6.75;5.93;;;;;;;;;;9492905;30;20064;-68
2023/06/05 10:42:28;;;;;;;6.53;5.90;;;;;;;;;;9496642;30;20065;-68
2023/06/05 10:47:32;;;;;;;6.85;6.20;;;;;;;;;;9506401;30;20056;-67
2023/06/05 10:52:36;;;;;;;5.63;5.10;;;;;;;;;;9499330;30;20083;-67
2023/06/05 10:58:09;;;;;;;6.53;4.82;;;;;;;;;;9491480;30;20056;-68
2023/06/05 11:03:03;;;;;;;6.28;4.60;;;;;;;;;;9489904;30;20493;-68
2023/06/05 11:08:13;;;;;;;4.43;3.92;;;;;;;;;;9471900;30;20071;-68
2023/06/05 11:13:08;;;;;;;4.43;3.80;;;;;;;;;;9478257;30;20520;-68
2023/06/05 11:18:30;;;;;;;4.65;4.25;;;;;;;;;;9499872;30;20515;-68
2023/06/05 11:23:29;;;;;;;5.40;4.10;;;;;;;;;;9499514;30;20113;-68
2023/06/05 11:28:57;;;;;;;3.70;3.35;;;;;;;;;;9501050;30;20497;-70
2023/06/05 11:33:50;;;;;;;3.38;3.08;;;;;;;;;;9498021;30;20056;-67
2023/06/05 11:38:54;;;;;;;3.85;2.35;;;;;;;;;;9493868;30;20070;-65
2023/06/05 11:43:48;;;;;;;4.15;3.35;;;;;;;;;;9509044;29;20424;-65
2023/06/05 11:48:45;;;;;;;4.95;3.05;;;;;;;;;;9457751;30;20540;-66
2023/06/05 11:53:49;;;;;;;5.60;2.90;;;;;;;;;;9458501;30;20049;-65
2023/06/05 11:58:44;;;;;;;3.80;2.20;;;;;;;;;;9467145;30;20053;-67
2023/06/05 12:03:39;;;;;;;3.53;2.45;;;;;;;;;;9472501;30;20048;-65
2023/06/05 12:08:34;;;;;;;4.47;2.60;;;;;;;;;;9511048;30;20432;-65
2023/06/05 12:13:50;;;;;;;2.53;2.22;;;;;;;;;;9503271;30;20063;-65
2023/06/05 12:18:45;;;;;;;4.40;2.70;;;;;;;;;;9499720;30;20079;-65
2023/06/05 12:23:39;;;;;;;2.72;2.35;;;;;;;;;;9504534;30;20100;-65
2023/06/05 12:28:36;;;;;;;3.77;2.30;;;;;;;;;;9521005;30;20118;-66
2023/06/05 12:33:32;;;;;;;2.05;1.58;;;;;;;;;;9503933;30;20063;-65
2023/06/05 12:38:26;;;;;;;4.15;1.70;;;;;;;;;;9508516;30;20105;-66
2023/06/05 12:43:19;;;;;;;2.40;1.40;;;;;;;;;;9510758;30;20052;-67
2023/06/05 12:48:13;;;;;;;2.80;1.50;;;;;;;;;;9500446;30;20088;-66
2023/06/05 12:53:07;;;;;;;1.63;1.52;;;;;;;;;;9508381;30;20060;-66
2023/06/05 12:58:01;;;;;;;3.70;1.70;;;;;;;;;;9513215;30;20060;-66
2023/06/05 13:02:55;;;;;;;2.70;1.83;;;;;;;;;;9506425;30;20060;-66
2023/06/05 13:07:51;;;;;;;3.13;2.42;;;;;;;;;;9509284;30;20140;-65
2023/06/05 13:12:44;;;;;;;3.88;3.58;;;;;;;;;;9485190;30;20609;-65
2023/06/05 13:17:37;;;;;;;5.45;3.40;;;;;;;;;;9477962;30;20474;-65
2023/06/05 13:22:31;;;;;;;3.58;3.28;;;;;;;;;;9481711;29;20062;-65
2023/06/05 13:27:25;;;;;;;3.05;2.78;;;;;;;;;;9478388;30;20629;-65
2023/06/05 13:32:19;;;;;;;5.03;3.00;;;;;;;;;;9488356;30;20052;-66
2023/06/05 13:37:13;;;;;;;3.28;2.72;;;;;;;;;;9474977;30;20068;-67
2023/06/05 13:42:08;;;;;;;4.60;2.55;;;;;;;;;;9481060;30;20060;-66
2023/06/05 13:47:03;;;;;;;2.30;2.15;;;;;;;;;;9490667;30;20546;-67
2023/06/05 13:51:57;;;;;;;2.55;1.38;;;;;;;;;;9499787;30;20131;-66
2023/06/05 13:56:52;;;;;;;1.73;1.38;;;;;;;;;;9497599;30;20151;-67
2023/06/05 14:01:45;;;;;;;1.88;1.77;;;;;;;;;;9495393;30;20542;-67
2023/06/05 14:06:41;;;;;;;2.42;2.22;;;;;;;;;;9497055;30;20064;-66
2023/06/05 14:11:36;;;;;;;2.50;2.30;;;;;;;;;;9494985;29;20050;-67
2023/06/05 14:16:30;;;;;;;2.03;1.65;;;;;;;;;;9498971;30;20056;-67
2023/06/05 14:21:25;;;;;;;2.42;2.22;;;;;;;;;;9499728;30;20070;-67
2023/06/05 14:26:21;;;;;;;4.75;2.63;;;;;;;;;;9498257;30;20060;-67
2023/06/05 14:31:14;;;;;;;2.67;2.47;;;;;;;;;;9491084;30;20468;-66
2023/06/05 14:36:08;;;;;;;6.68;4.57;;;;;;;;;;9497756;30;20151;-66
2023/06/05 14:41:03;;;;;;;4.68;2.00;;;;;;;;;;9499087;30;20126;-66
2023/06/05 14:45:56;;;;;;;9.02;4.35;;;;;;;;;;9488219;30;20056;-66
2023/06/05 14:50:52;;;;;;;6.35;4.25;;;;;;;;;;9486000;30;20122;-66
2023/06/05 14:55:47;;;;;;;7.40;6.00;;;;;;;;;;9499630;30;20068;-66
2023/06/05 15:00:44;;;;;;;6.03;5.28;;;;;;;;;;9501103;30;20720;-65
2023/06/05 15:05:38;;;;;;;12.02;5.57;;;;;;;;;;9501618;30;20139;-66
2023/06/05 15:10:31;;;;;;;5.82;4.75;;;;;;;;;;9493177;30;20060;-65
2023/06/05 15:15:25;;;;;;;5.43;4.90;;;;;;;;;;9490953;30;20493;-65
2023/06/05 15:20:18;;;;;;;5.60;5.10;;;;;;;;;;9504621;30;20060;-66
2023/06/05 15:25:15;;;;;;;8.00;5.63;;;;;;;;;;9508587;30;20509;-66
2023/06/05 15:30:10;;;;;;;6.88;5.50;;;;;;;;;;9512344;30;20477;-66
2023/06/05 15:35:05;;;;;;;5.93;5.30;;;;;;;;;;9504435;30;20056;-66
2023/06/05 15:39:58;;;;;;;6.07;5.47;;;;;;;;;;9503015;30;20094;-66
2023/06/05 15:44:53;;;;;;;6.22;5.68;;;;;;;;;;9488600;30;20070;-64
2023/06/05 15:49:48;;;;;;;7.32;6.65;;;;;;;;;;9500939;30;20509;-67
2023/06/05 15:54:42;;;;;;;7.25;6.65;;;;;;;;;;9513427;30;20522;-73
2023/06/05 15:59:50;;;;;;;4.55;3.45;;;;;;;;;;9507891;29;20500;-73
2023/06/05 16:04:45;;;;;;;2.15;1.95;;;;;;;;;;9506694;30;20059;-70
2023/06/05 16:09:48;;;;;;;3.28;2.78;;;;;;;;;;9510024;30;20063;-68
2023/06/05 16:14:45;;;;;;;4.22;3.10;;;;;;;;;;9497568;30;20476;-69
2023/06/05 16:19:40;;;;;;;4.63;3.55;;;;;;;;;;9503919;30;20056;-60
2023/06/05 16:24:37;;;;;;;;;;;;;;;;;;9513403;30;20060;-60
2023/06/05 16:29:30;;;;;;;5.38;4.85;;;;;;;;;;9504413;30;19930;-61
2023/06/05 16:34:24;;;;;;;6.38;3.05;;;;;;;;;;9506870;30;21004;-60
2023/06/05 16:39:18;;;;;;;4.10;3.70;;;;;;;;;;9503588;30;20090;-60
2023/06/05 16:44:12;;;;;;;4.50;4.10;;;;;;;;;;9503799;30;20048;-60
2023/06/05 16:49:06;;;;;;;3.90;3.60;;;;;;;;;;9506040;30;20060;-60
2023/06/05 16:54:00;;;;;;;4.47;4.07;;;;;;;;;;9505255;30;20060;-59
2023/06/05 16:58:55;;;;;;;4.55;4.07;;;;;;;;;;9500722;30;20525;-60
2023/06/05 17:03:53;;;;;;;3.55;3.25;;;;;;;;;;9501388;30;20090;-63
2023/06/05 17:08:47;;;;;;;2.83;2.63;;;;;;;;;;9506093;30;20797;-62
2023/06/05 17:13:40;;;;;;;8.50;3.08;;;;;;;;;;9501969;30;20048;-62
2023/06/05 17:18:33;;;;;;;5.85;3.40;;;;;;;;;;9498206;30;20060;-62
2023/06/05 17:23:28;;;;;;;4.75;4.35;;;;;;;;;;9501704;30;20064;-65
2023/06/05 17:28:21;;;;;;;4.53;4.13;;;;;;;;;;9501045;30;20063;-66
2023/06/05 17:33:15;;;;;;;4.15;3.03;;;;;;;;;;9496847;30;20060;-67
2023/06/05 17:38:08;;;;;;;2.38;1.95;;;;;;;;;;9498334;30;20052;-64
2023/06/05 17:43:02;;;;;;;1.90;1.70;;;;;;;;;;9487451;29;20056;-63
2023/06/05 17:47:55;;;;;;;1.40;1.30;;;;;;;;;;9498292;30;20060;-63
2023/06/05 17:52:50;;;;;;;1.70;1.60;;;;;;;;;;9485085;30;20060;-63
2023/06/05 17:57:44;;;;;;;2.17;1.98;;;;;;;;;;9494457;30;20064;-63
2023/06/05 18:02:38;;;;;;;1.77;1.67;;;;;;;;;;9480701;30;20056;-64
2023/06/05 18:07:32;;;;;;;4.13;1.90;;;;;;;;;;9489045;30;20549;-63
2023/06/05 18:12:26;;;;;;;1.73;1.63;;;;;;;;;;9488242;30;20103;-63
2023/06/05 18:17:20;;;;;;;6.05;1.42;;;;;;;;;;9484217;30;20056;-63
2023/06/05 18:22:13;;;;;;;2.22;1.58;;;;;;;;;;9484549;30;20052;-64
2023/06/05 18:27:08;;;;;;;12.68;1.80;;;;;;;;;;9479268;30;20519;-67
2023/06/05 18:32:01;;;;;;;1.50;1.40;;;;;;;;;;9507809;30;20134;-64
2023/06/05 18:36:54;;;;;;;1.15;1.15;;;;;;;;;;9488620;30;20387;-63
2023/06/05 18:41:47;;;;;;;1.63;1.52;;;;;;;;;;9484136;30;20084;-64
2023/06/05 18:46:41;;;;;;;1.98;1.45;;;;;;;;;;9497531;30;20059;-63
2023/06/05 18:51:36;;;;;;;1.65;1.55;;;;;;;;;;9484537;30;20077;-62
2023/06/05 18:56:30;;;;;;;1.88;1.70;;;;;;;;;;9469758;30;20056;-63
2023/06/05 19:01:24;;;;;;;2.17;1.90;;;;;;;;;;9488523;30;20442;-63
2023/06/05 19:06:18;;;;;;;3.28;1.60;;;;;;;;;;9494297;30;20428;-63
2023/06/05 19:11:12;;;;;;;2.70;2.50;;;;;;;;;;9490217;30;20127;-63
2023/06/05 19:16:06;;;;;;;2.70;2.50;;;;;;;;;;9502792;30;20063;-62
2023/06/05 19:20:59;;;;;;;2.47;2.28;;;;;;;;;;9493053;30;20145;-64
2023/06/05 19:25:54;;;;;;;4.18;2.42;;;;;;;;;;9481243;30;20072;-63
2023/06/05 19:30:47;;;;;;;3.13;2.92;;;;;;;;;;9485158;30;20147;-64
2023/06/05 19:35:40;;;;;;;5.60;3.42;;;;;;;;;;9491681;30;20129;-63
2023/06/05 19:40:35;;;;;;;9.05;3.28;;;;;;;;;;9503378;30;20507;-71
2023/06/05 19:45:28;;;;;;;12.68;4.18;;;;;;;;;;9490460;30;20531;-68
2023/06/05 19:50:22;;;;;;;7.68;3.55;;;;;;;;;;9501776;29;20182;-66
2023/06/05 19:55:17;;;;;;;4.18;3.67;;;;;;;;;;9495215;29;20044;-67
2023/06/05 20:00:15;;;;;;;5.38;4.85;;;;;;;;;;9504150;29;20060;-66
2023/06/05 20:05:09;;;;;;;5.93;4.83;;;;;;;;;;9503575;30;20127;-66
2023/06/05 20:10:03;;;;;;;6.90;5.20;;;;;;;;;;9504492;30;20052;-67
2023/06/05 20:14:57;;;;;;;6.60;6.00;;;;;;;;;;9505138;30;20060;-65
2023/06/05 20:19:51;;;;;;;10.88;7.15;;;;;;;;;;9503086;30;20051;-66
2023/06/05 20:24:44;;;;;;;6.97;6.28;;;;;;;;;;9503741;30;20059;-66
2023/06/05 20:29:39;;;;;;;7.88;6.30;;;;;;;;;;9518619;30;20056;-67
2023/06/05 20:34:33;;;;;;;8.13;6.95;;;;;;;;;;9498811;30;20103;-66
2023/06/05 20:39:30;;;;;;;11.10;7.07;;;;;;;;;;9500591;30;20139;-66
2023/06/05 20:44:29;;;;;;;9.32;8.13;;;;;;;;;;9508844;30;20064;-70
2023/06/05 20:49:23;;;;;;;10.63;8.90;;;;;;;;;;9500560;30;20667;-67
2023/06/05 20:54:18;;;;;;;8.65;7.85;;;;;;;;;;9502139;30;20056;-67
2023/06/05 20:59:12;;;;;;;10.48;7.75;;;;;;;;;;9505614;30;20088;-66
2023/06/05 21:04:05;;;;;;;9.18;8.27;;;;;;;;;;9499774;30;20061;-67
2023/06/05 21:08:59;;;;;;;9.82;8.82;;;;;;;;;;9506425;30;20056;-66
2023/06/05 21:13:54;;;;;;;11.02;9.93;;;;;;;;;;9501445;30;20536;-65
2023/06/05 21:18:47;;;;;;;9.85;8.85;;;;;;;;;;9504456;30;20135;-67
2023/06/05 21:23:43;;;;;;;12.82;7.65;;;;;;;;;;9508548;29;20059;-66
2023/06/05 21:28:38;;;;;;;10.23;7.53;;;;;;;;;;9512573;30;20098;-68
2023/06/05 21:33:34;;;;;;;9.10;7.57;;;;;;;;;;9505571;30;20118;-68
2023/06/05 21:38:29;;;;;;;10.38;7.47;;;;;;;;;;9505775;30;20063;-65
2023/06/05 21:43:25;;;;;;;10.35;8.35;;;;;;;;;;9504783;30;20048;-65
2023/06/05 21:48:20;;;;;;;13.85;7.85;;;;;;;;;;9509694;30;20593;-64
2023/06/05 21:53:17;;;;;;;9.75;8.85;;;;;;;;;;9505768;30;20053;-65
2023/06/05 21:58:11;;;;;;;9.55;8.65;;;;;;;;;;9506031;30;20060;-65
2023/06/05 22:03:06;;;;;;;10.93;8.13;;;;;;;;;;9501967;30;20055;-66
2023/06/05 22:08:05;;;;;;;18.77;8.40;;;;;;;;;;9503930;30;20064;-67
2023/06/05 22:13:01;;;;;;;10.43;7.50;;;;;;;;;;9502568;30;20103;-67
2023/06/05 22:17:54;;;;;;;12.32;8.68;;;;;;;;;;9509870;30;20064;-66
2023/06/05 22:22:47;;;;;;;11.57;10.38;;;;;;;;;;9499948;30;20052;-66
2023/06/05 22:27:43;;;;;;;11.93;10.68;;;;;;;;;;9504830;30;20424;-65
2023/06/05 22:32:42;;;;;;;15.57;10.10;;;;;;;;;;9494600;30;20121;-66
2023/06/05 22:37:38;;;;;;;12.05;8.95;;;;;;;;;;9503794;30;20125;-67
2023/06/05 22:42:32;;;;;;;16.77;9.40;;;;;;;;;;9501728;30;20082;-65
2023/06/05 22:47:28;;;;;;;11.05;9.07;;;;;;;;;;9498913;30;20052;-66
2023/06/05 22:52:24;;;;;;;11.38;9.25;;;;;;;;;;9507713;30;20063;-65
2023/06/05 22:57:19;;;;;;;11.85;8.32;;;;;;;;;;9495231;30;20523;-66
2023/06/05 23:02:12;;;;;;;9.20;8.30;;;;;;;;;;9503432;30;20486;-66
2023/06/05 23:07:09;;;;;;;8.63;7.82;;;;;;;;;;9507469;30;20066;-64
2023/06/05 23:12:01;;;;;;;9.32;8.05;;;;;;;;;;9506982;30;20052;-66
2023/06/05 23:16:55;;;;;;;10.90;8.65;;;;;;;;;;9503317;30;20056;-66
2023/06/05 23:21:49;;;;;;;10.00;8.32;;;;;;;;;;9505986;30;20062;-66
2023/06/05 23:26:42;;;;;;;11.75;9.30;;;;;;;;;;9501732;30;20087;-66
2023/06/05 23:31:38;;;;;;;16.88;9.20;;;;;;;;;;9505768;30;20056;-66
2023/06/05 23:36:41;;;;;;;13.45;9.43;;;;;;;;;;9502552;30;20066;-66
2023/06/05 23:41:36;;;;;;;9.75;8.85;;;;;;;;;;9516478;30;20142;-65
2023/06/05 23:46:30;;;;;;;13.95;9.10;;;;;;;;;;9502445;30;20505;-65
2023/06/05 23:51:24;;;;;;;13.27;9.63;;;;;;;;;;9501694;30;20060;-65
2023/06/05 23:56:17;;;;;;;20.27;10.20;;;;;;;;;;9506965;30;20088;-66
